sensor_id;sensor_type;location;lat;lon;timestamp;pressure;altitude;pressure_sealevel;temperature;humidity
9672;BME280;4874;43.568;27.824;2022-09-23T00:01:06;99039.06;;;11.18;100.00
9672;BME280;4874;43.568;27.824;2022-09-23T00:03:34;99077.03;;;11.37;100.00
9672;BME280;4874;43.568;27.824;2022-09-23T00:06:04;99070.63;;;11.30;100.00
9672;BME280;4874;43.568;27.824;2022-09-23T00:08:31;99071.41;;;11.13;100.00
9672;BME280;4874;43.568;27.824;2022-09-23T00:11:22;99070.00;;;11.09;100.00
9672;BME280;4874;43.568;27.824;2022-09-23T00:13:51;99068.63;;;11.05;100.00
9672;BME280;4874;43.568;27.824;2022-09-23T00:16:24;99075.59;;;11.06;100.00
9672;BME280;4874;43.568;27.824;2022-09-23T00:18:51;99078.31;;;11.33;100.00
9672;BME280;4874;43.568;27.824;2022-09-23T00:21:19;99080.81;;;11.35;100.00
9672;BME280;4874;43.568;27.824;2022-09-23T00:23:47;99076.81;;;11.21;100.00
9672;BME280;4874;43.568;27.824;2022-09-23T00:26:16;99070.53;;;11.13;100.00
9672;BME280;4874;43.568;27.824;2022-09-23T00:28:44;99043.19;;;11.03;100.00
9672;BME280;4874;43.568;27.824;2022-09-23T00:31:20;99074.63;;;11.07;100.00
9672;BME280;4874;43.568;27.824;2022-09-23T00:33:54;99050.44;;;11.01;100.00
9672;BME280;4874;43.568;27.824;2022-09-23T00:36:22;99075.50;;;10.98;100.00
9672;BME280;4874;43.568;27.824;2022-09-23T00:38:49;99081.91;;;11.05;100.00
9672;BME280;4874;43.568;27.824;2022-09-23T00:41:17;99067.34;;;11.09;100.00
9672;BME280;4874;43.568;27.824;2022-09-23T00:43:48;99076.66;;;11.23;100.00
9672;BME280;4874;43.568;27.824;2022-09-23T00:46:38;99074.69;;;11.34;100.00
9672;BME280;4874;43.568;27.824;2022-09-23T00:49:18;99074.34;;;11.10;100.00
9672;BME280;4874;43.568;27.824;2022-09-23T00:51:52;99073.41;;;10.92;100.00
9672;BME280;4874;43.568;27.824;2022-09-23T00:54:21;99050.50;;;10.82;100.00
9672;BME280;4874;43.568;27.824;2022-09-23T00:56:50;99063.72;;;11.01;100.00
9672;BME280;4874;43.568;27.824;2022-09-23T00:59:17;99083.31;;;10.90;100.00
9672;BME280;4874;43.568;27.824;2022-09-23T01:01:43;99082.97;;;10.76;100.00
9672;BME280;4874;43.568;27.824;2022-09-23T01:04:11;99077.31;;;11.07;100.00
9672;BME280;4874;43.568;27.824;2022-09-23T01:06:40;99071.06;;;10.80;100.00
9672;BME280;4874;43.568;27.824;2022-09-23T01:09:06;99086.06;;;10.71;100.00
9672;BME280;4874;43.568;27.824;2022-09-23T01:15:02;99086.03;;;10.61;100.00
9672;BME280;4874;43.568;27.824;2022-09-23T01:18:32;99084.09;;;10.63;100.00
9672;BME280;4874;43.568;27.824;2022-09-23T01:21:24;99088.97;;;10.68;100.00
9672;BME280;4874;43.568;27.824;2022-09-23T01:38:17;99070.25;;;10.60;100.00
9672;BME280;4874;43.568;27.824;2022-09-23T01:41:01;99078.94;;;10.62;100.00
9672;BME280;4874;43.568;27.824;2022-09-23T01:46:32;99050.44;;;10.54;100.00
9672;BME280;4874;43.568;27.824;2022-09-23T01:51:45;99103.78;;;10.61;100.00
9672;BME280;4874;43.568;27.824;2022-09-23T01:54:36;99093.59;;;10.56;100.00
9672;BME280;4874;43.568;27.824;2022-09-23T01:57:48;99098.06;;;10.56;100.00
9672;BME280;4874;43.568;27.824;2022-09-23T02:00:16;99099.59;;;10.49;100.00
9672;BME280;4874;43.568;27.824;2022-09-23T02:03:04;99089.84;;;10.59;100.00
9672;BME280;4874;43.568;27.824;2022-09-23T02:05:36;99090.88;;;10.85;100.00
9672;BME280;4874;43.568;27.824;2022-09-23T02:08:20;99082.00;;;10.67;100.00
9672;BME280;4874;43.568;27.824;2022-09-23T02:10:55;99043.06;;;10.29;100.00
9672;BME280;4874;43.568;27.824;2022-09-23T02:18:57;99074.75;;;10.40;100.00
9672;BME280;4874;43.568;27.824;2022-09-23T02:21:29;99069.88;;;10.36;100.00
9672;BME280;4874;43.568;27.824;2022-09-23T02:24:13;99082.56;;;10.32;100.00
9672;BME280;4874;43.568;27.824;2022-09-23T02:26:45;99073.75;;;10.32;100.00
9672;BME280;4874;43.568;27.824;2022-09-23T02:29:29;99054.53;;;10.30;100.00
9672;BME280;4874;43.568;27.824;2022-09-23T02:32:35;99070.03;;;10.25;100.00
9672;BME280;4874;43.568;27.824;2022-09-23T02:40:39;99076.16;;;10.25;100.00
9672;BME280;4874;43.568;27.824;2022-09-23T02:43:18;99071.41;;;10.19;100.00
9672;BME280;4874;43.568;27.824;2022-09-23T02:45:46;99040.66;;;10.07;100.00
9672;BME280;4874;43.568;27.824;2022-09-23T02:48:17;99062.75;;;10.27;100.00
9672;BME280;4874;43.568;27.824;2022-09-23T02:50:46;99053.53;;;10.12;100.00
9672;BME280;4874;43.568;27.824;2022-09-23T02:53:13;99079.38;;;10.19;100.00
9672;BME280;4874;43.568;27.824;2022-09-23T02:55:43;99084.13;;;10.35;100.00
9672;BME280;4874;43.568;27.824;2022-09-23T02:58:11;99079.22;;;10.21;100.00
9672;BME280;4874;43.568;27.824;2022-09-23T03:05:52;99080.19;;;10.39;100.00
9672;BME280;4874;43.568;27.824;2022-09-23T03:08:32;99093.19;;;10.23;100.00
9672;BME280;4874;43.568;27.824;2022-09-23T03:11:07;99041.75;;;10.05;100.00
9672;BME280;4874;43.568;27.824;2022-09-23T03:21:44;99065.69;;;10.14;100.00
9672;BME280;4874;43.568;27.824;2022-09-23T03:24:12;99070.72;;;10.17;100.00
9672;BME280;4874;43.568;27.824;2022-09-23T03:26:43;99082.03;;;10.19;100.00
9672;BME280;4874;43.568;27.824;2022-09-23T03:29:13;99074.03;;;10.10;100.00
9672;BME280;4874;43.568;27.824;2022-09-23T03:31:41;99075.13;;;9.98;100.00
9672;BME280;4874;43.568;27.824;2022-09-23T03:34:27;99079.47;;;9.99;100.00
9672;BME280;4874;43.568;27.824;2022-09-23T03:37:20;99081.41;;;9.97;100.00
9672;BME280;4874;43.568;27.824;2022-09-23T03:42:34;99083.22;;;9.87;100.00
9672;BME280;4874;43.568;27.824;2022-09-23T03:45:08;99090.94;;;10.09;100.00
9672;BME280;4874;43.568;27.824;2022-09-23T03:47:37;99095.41;;;10.08;100.00
9672;BME280;4874;43.568;27.824;2022-09-23T03:50:05;99094.38;;;10.00;100.00
9672;BME280;4874;43.568;27.824;2022-09-23T03:52:31;99101.06;;;9.85;100.00
9672;BME280;4874;43.568;27.824;2022-09-23T03:54:58;99103.44;;;9.88;100.00
9672;BME280;4874;43.568;27.824;2022-09-23T03:57:25;99109.00;;;9.85;100.00
9672;BME280;4874;43.568;27.824;2022-09-23T03:59:51;99106.50;;;9.83;100.00
9672;BME280;4874;43.568;27.824;2022-09-23T04:02:19;99122.13;;;9.86;100.00
9672;BME280;4874;43.568;27.824;2022-09-23T04:04:46;99120.91;;;10.00;100.00
9672;BME280;4874;43.568;27.824;2022-09-23T04:07:13;99117.09;;;9.83;100.00
9672;BME280;4874;43.568;27.824;2022-09-23T04:09:40;99097.44;;;9.86;100.00
9672;BME280;4874;43.568;27.824;2022-09-23T04:12:10;99107.47;;;9.82;100.00
9672;BME280;4874;43.568;27.824;2022-09-23T04:14:38;99108.91;;;9.96;100.00
9672;BME280;4874;43.568;27.824;2022-09-23T04:17:05;99109.59;;;9.98;100.00
9672;BME280;4874;43.568;27.824;2022-09-23T04:19:32;99108.72;;;9.78;100.00
9672;BME280;4874;43.568;27.824;2022-09-23T04:21:58;99110.72;;;9.95;100.00
9672;BME280;4874;43.568;27.824;2022-09-23T04:24:25;99112.66;;;9.84;100.00
9672;BME280;4874;43.568;27.824;2022-09-23T04:26:52;99123.06;;;10.15;100.00
9672;BME280;4874;43.568;27.824;2022-09-23T04:29:20;99124.97;;;10.04;100.00
9672;BME280;4874;43.568;27.824;2022-09-23T04:31:47;99126.13;;;10.20;100.00
9672;BME280;4874;43.568;27.824;2022-09-23T04:34:15;99111.78;;;10.23;100.00
9672;BME280;4874;43.568;27.824;2022-09-23T04:36:43;99128.94;;;10.38;100.00
9672;BME280;4874;43.568;27.824;2022-09-23T04:39:11;99118.88;;;10.32;100.00
9672;BME280;4874;43.568;27.824;2022-09-23T04:41:38;99136.50;;;10.52;100.00
9672;BME280;4874;43.568;27.824;2022-09-23T04:44:05;99005.06;;;9.72;100.00
9672;BME280;4874;43.568;27.824;2022-09-23T04:46:32;99106.16;;;10.35;100.00
9672;BME280;4874;43.568;27.824;2022-09-23T04:48:59;99106.06;;;10.37;100.00
9672;BME280;4874;43.568;27.824;2022-09-23T04:51:26;99144.00;;;10.95;100.00
9672;BME280;4874;43.568;27.824;2022-09-23T04:53:54;99143.34;;;10.83;100.00
9672;BME280;4874;43.568;27.824;2022-09-23T04:56:27;99147.94;;;10.81;100.00
9672;BME280;4874;43.568;27.824;2022-09-23T04:58:54;99145.28;;;10.81;100.00
9672;BME280;4874;43.568;27.824;2022-09-23T05:01:26;99155.63;;;10.75;100.00
9672;BME280;4874;43.568;27.824;2022-09-23T05:03:59;99112.88;;;10.49;100.00
9672;BME280;4874;43.568;27.824;2022-09-23T05:06:33;99154.63;;;10.85;100.00
9672;BME280;4874;43.568;27.824;2022-09-23T05:09:02;99155.91;;;10.81;100.00
9672;BME280;4874;43.568;27.824;2022-09-23T05:11:30;99156.72;;;10.91;100.00
9672;BME280;4874;43.568;27.824;2022-09-23T05:13:58;99148.50;;;10.65;100.00
9672;BME280;4874;43.568;27.824;2022-09-23T05:16:25;99152.81;;;10.86;100.00
9672;BME280;4874;43.568;27.824;2022-09-23T05:18:53;99164.97;;;10.98;100.00
9672;BME280;4874;43.568;27.824;2022-09-23T05:21:24;99158.94;;;11.05;100.00
9672;BME280;4874;43.568;27.824;2022-09-23T05:23:53;99159.38;;;11.10;100.00
9672;BME280;4874;43.568;27.824;2022-09-23T05:26:22;99154.44;;;11.15;100.00
9672;BME280;4874;43.568;27.824;2022-09-23T05:28:52;99122.47;;;11.07;100.00
9672;BME280;4874;43.568;27.824;2022-09-23T05:31:21;99149.44;;;11.12;100.00
9672;BME280;4874;43.568;27.824;2022-09-23T05:33:54;99150.88;;;10.88;100.00
9672;BME280;4874;43.568;27.824;2022-09-23T05:36:23;99156.03;;;10.89;100.00
9672;BME280;4874;43.568;27.824;2022-09-23T05:38:50;99158.09;;;11.05;100.00
9672;BME280;4874;43.568;27.824;2022-09-23T05:41:19;99152.84;;;10.76;100.00
9672;BME280;4874;43.568;27.824;2022-09-23T05:43:49;99143.72;;;10.98;100.00
9672;BME280;4874;43.568;27.824;2022-09-23T05:46:19;99143.72;;;11.07;100.00
9672;BME280;4874;43.568;27.824;2022-09-23T05:48:48;99146.00;;;11.39;100.00
9672;BME280;4874;43.568;27.824;2022-09-23T05:51:17;99155.31;;;11.52;100.00
9672;BME280;4874;43.568;27.824;2022-09-23T05:53:46;99154.31;;;12.87;100.00
9672;BME280;4874;43.568;27.824;2022-09-23T05:56:18;99159.13;;;13.02;100.00
9672;BME280;4874;43.568;27.824;2022-09-23T05:58:47;99149.94;;;11.99;100.00
9672;BME280;4874;43.568;27.824;2022-09-23T06:01:17;99147.09;;;12.27;100.00
9672;BME280;4874;43.568;27.824;2022-09-23T06:03:47;99168.72;;;13.38;100.00
9672;BME280;4874;43.568;27.824;2022-09-23T06:06:15;99174.31;;;13.27;100.00
9672;BME280;4874;43.568;27.824;2022-09-23T06:08:47;99161.56;;;13.64;100.00
9672;BME280;4874;43.568;27.824;2022-09-23T06:11:14;99174.56;;;14.00;100.00
9672;BME280;4874;43.568;27.824;2022-09-23T06:13:40;99168.81;;;13.79;100.00
9672;BME280;4874;43.568;27.824;2022-09-23T06:16:10;99167.84;;;13.55;100.00
9672;BME280;4874;43.568;27.824;2022-09-23T06:18:38;99184.34;;;13.84;100.00
9672;BME280;4874;43.568;27.824;2022-09-23T06:21:05;99180.53;;;13.86;100.00
9672;BME280;4874;43.568;27.824;2022-09-23T06:23:32;99184.22;;;13.93;100.00
9672;BME280;4874;43.568;27.824;2022-09-23T06:26:04;99150.00;;;13.97;100.00
9672;BME280;4874;43.568;27.824;2022-09-23T06:28:34;99189.66;;;13.84;100.00
9672;BME280;4874;43.568;27.824;2022-09-23T06:31:04;99179.47;;;12.85;100.00
9672;BME280;4874;43.568;27.824;2022-09-23T06:33:35;99186.88;;;12.73;100.00
9672;BME280;4874;43.568;27.824;2022-09-23T06:36:04;99196.06;;;13.65;100.00
9672;BME280;4874;43.568;27.824;2022-09-23T06:38:32;99198.78;;;14.49;100.00
9672;BME280;4874;43.568;27.824;2022-09-23T06:41:00;99197.81;;;14.50;100.00
9672;BME280;4874;43.568;27.824;2022-09-23T06:43:29;99185.03;;;13.94;100.00
9672;BME280;4874;43.568;27.824;2022-09-23T06:45:58;99164.09;;;14.97;100.00
9672;BME280;4874;43.568;27.824;2022-09-23T06:48:26;99205.75;;;14.26;100.00
9672;BME280;4874;43.568;27.824;2022-09-23T06:50:57;99207.53;;;14.83;100.00
9672;BME280;4874;43.568;27.824;2022-09-23T06:53:24;99202.56;;;14.96;100.00
9672;BME280;4874;43.568;27.824;2022-09-23T06:56:02;99188.91;;;15.86;100.00
9672;BME280;4874;43.568;27.824;2022-09-23T06:58:30;99200.31;;;15.80;100.00
9672;BME280;4874;43.568;27.824;2022-09-23T07:01:03;99196.69;;;15.57;100.00
9672;BME280;4874;43.568;27.824;2022-09-23T07:03:30;99166.41;;;15.48;100.00
9672;BME280;4874;43.568;27.824;2022-09-23T07:05:58;99195.03;;;15.40;100.00
9672;BME280;4874;43.568;27.824;2022-09-23T07:08:25;99196.94;;;15.86;100.00
9672;BME280;4874;43.568;27.824;2022-09-23T07:10:54;99195.94;;;16.25;100.00
9672;BME280;4874;43.568;27.824;2022-09-23T07:13:21;99183.75;;;15.76;100.00
9672;BME280;4874;43.568;27.824;2022-09-23T07:15:56;99194.41;;;16.00;100.00
9672;BME280;4874;43.568;27.824;2022-09-23T07:18:24;99192.50;;;15.38;100.00
9672;BME280;4874;43.568;27.824;2022-09-23T07:20:52;99188.91;;;15.94;100.00
9672;BME280;4874;43.568;27.824;2022-09-23T07:23:19;99196.84;;;16.79;100.00
9672;BME280;4874;43.568;27.824;2022-09-23T07:25:46;99197.34;;;16.21;100.00
9672;BME280;4874;43.568;27.824;2022-09-23T07:28:15;99196.56;;;16.74;100.00
9672;BME280;4874;43.568;27.824;2022-09-23T07:30:42;99200.28;;;16.34;100.00
9672;BME280;4874;43.568;27.824;2022-09-23T07:33:22;99165.91;;;16.38;100.00
9672;BME280;4874;43.568;27.824;2022-09-23T07:35:57;99195.78;;;16.66;100.00
9672;BME280;4874;43.568;27.824;2022-09-23T07:38:23;99184.03;;;16.67;100.00
9672;BME280;4874;43.568;27.824;2022-09-23T07:40:51;99167.88;;;17.20;100.00
9672;BME280;4874;43.568;27.824;2022-09-23T07:43:18;99179.34;;;17.14;100.00
9672;BME280;4874;43.568;27.824;2022-09-23T07:45:45;99177.94;;;16.95;100.00
9672;BME280;4874;43.568;27.824;2022-09-23T07:48:12;99172.09;;;16.92;100.00
9672;BME280;4874;43.568;27.824;2022-09-23T07:50:39;99093.31;;;16.02;100.00
9672;BME280;4874;43.568;27.824;2022-09-23T07:53:05;99177.94;;;17.18;100.00
9672;BME280;4874;43.568;27.824;2022-09-23T07:55:34;99173.66;;;16.64;100.00
9672;BME280;4874;43.568;27.824;2022-09-23T07:58:00;99182.22;;;16.90;100.00
9672;BME280;4874;43.568;27.824;2022-09-23T08:00:28;99168.78;;;16.90;100.00
9672;BME280;4874;43.568;27.824;2022-09-23T08:02:54;99154.00;;;16.49;100.00
9672;BME280;4874;43.568;27.824;2022-09-23T08:05:21;99172.72;;;17.02;100.00
9672;BME280;4874;43.568;27.824;2022-09-23T08:07:48;99163.44;;;17.27;100.00
9672;BME280;4874;43.568;27.824;2022-09-23T08:10:15;99164.44;;;16.89;100.00
9672;BME280;4874;43.568;27.824;2022-09-23T08:12:44;99158.28;;;16.80;100.00
9672;BME280;4874;43.568;27.824;2022-09-23T08:15:11;99168.03;;;17.18;100.00
9672;BME280;4874;43.568;27.824;2022-09-23T08:17:38;99165.38;;;17.55;100.00
9672;BME280;4874;43.568;27.824;2022-09-23T08:20:05;99162.88;;;17.31;97.35
9672;BME280;4874;43.568;27.824;2022-09-23T08:22:32;99167.59;;;16.92;97.61
9672;BME280;4874;43.568;27.824;2022-09-23T08:24:59;99162.06;;;17.31;98.66
9672;BME280;4874;43.568;27.824;2022-09-23T08:27:26;99137.66;;;17.40;96.37
9672;BME280;4874;43.568;27.824;2022-09-23T08:29:53;99154.09;;;17.60;93.52
9672;BME280;4874;43.568;27.824;2022-09-23T08:32:20;99142.59;;;17.66;89.41
9672;BME280;4874;43.568;27.824;2022-09-23T08:34:47;99163.34;;;17.87;88.21
9672;BME280;4874;43.568;27.824;2022-09-23T08:37:14;99160.72;;;18.22;95.83
9672;BME280;4874;43.568;27.824;2022-09-23T08:39:41;99159.66;;;18.52;91.37
9672;BME280;4874;43.568;27.824;2022-09-23T08:42:17;99152.91;;;18.27;87.97
9672;BME280;4874;43.568;27.824;2022-09-23T08:44:54;99156.97;;;17.73;95.33
9672;BME280;4874;43.568;27.824;2022-09-23T08:47:25;99152.41;;;17.59;91.89
9672;BME280;4874;43.568;27.824;2022-09-23T08:53:03;99150.41;;;18.26;89.04
9672;BME280;4874;43.568;27.824;2022-09-23T08:55:48;99148.72;;;17.89;92.17
9672;BME280;4874;43.568;27.824;2022-09-23T09:03:57;99151.97;;;18.35;88.56
9672;BME280;4874;43.568;27.824;2022-09-23T09:06:33;99143.78;;;17.49;88.55
9672;BME280;4874;43.568;27.824;2022-09-23T09:09:28;99151.44;;;17.37;94.63
9672;BME280;4874;43.568;27.824;2022-09-23T09:12:02;99144.28;;;17.67;94.65
9672;BME280;4874;43.568;27.824;2022-09-23T09:14:33;99148.28;;;16.97;95.01
9672;BME280;4874;43.568;27.824;2022-09-23T09:17:14;99143.44;;;17.67;91.89
9672;BME280;4874;43.568;27.824;2022-09-23T09:22:58;99132.19;;;18.21;86.56
9672;BME280;4874;43.568;27.824;2022-09-23T09:27:57;99127.44;;;18.23;83.59
9672;BME280;4874;43.568;27.824;2022-09-23T09:30:24;99135.09;;;17.76;85.63
9672;BME280;4874;43.568;27.824;2022-09-23T09:33:02;99143.47;;;18.46;87.73
9672;BME280;4874;43.568;27.824;2022-09-23T09:35:36;99140.91;;;18.59;83.32
9672;BME280;4874;43.568;27.824;2022-09-23T09:38:04;99143.63;;;18.44;84.47
9672;BME280;4874;43.568;27.824;2022-09-23T09:40:43;99135.97;;;19.05;80.01
9672;BME280;4874;43.568;27.824;2022-09-23T09:43:16;99125.31;;;18.19;85.09
9672;BME280;4874;43.568;27.824;2022-09-23T09:46:02;99139.81;;;18.53;88.39
9672;BME280;4874;43.568;27.824;2022-09-23T09:48:49;99121.13;;;18.31;94.40
9672;BME280;4874;43.568;27.824;2022-09-23T09:51:21;99137.72;;;17.55;95.42
9672;BME280;4874;43.568;27.824;2022-09-23T09:53:49;99147.69;;;18.05;92.78
9672;BME280;4874;43.568;27.824;2022-09-23T09:56:29;99143.09;;;17.84;90.36
9672;BME280;4874;43.568;27.824;2022-09-23T09:59:09;99115.56;;;17.82;89.42
9672;BME280;4874;43.568;27.824;2022-09-23T10:01:37;99130.34;;;18.07;88.51
9672;BME280;4874;43.568;27.824;2022-09-23T10:04:21;99143.00;;;18.63;91.02
9672;BME280;4874;43.568;27.824;2022-09-23T10:07:11;99136.69;;;18.35;78.41
9672;BME280;4874;43.568;27.824;2022-09-23T10:09:39;99136.09;;;18.97;90.82
9672;BME280;4874;43.568;27.824;2022-09-23T10:12:17;99112.84;;;18.32;79.61
9672;BME280;4874;43.568;27.824;2022-09-23T10:14:47;99138.69;;;18.62;79.41
9672;BME280;4874;43.568;27.824;2022-09-23T10:17:22;99135.16;;;18.62;80.24
9672;BME280;4874;43.568;27.824;2022-09-23T10:19:55;99122.44;;;19.19;84.42
9672;BME280;4874;43.568;27.824;2022-09-23T10:22:31;99114.22;;;18.57;76.36
9672;BME280;4874;43.568;27.824;2022-09-23T10:25:02;99126.16;;;18.55;81.02
9672;BME280;4874;43.568;27.824;2022-09-23T10:27:33;99122.41;;;18.92;79.39
9672;BME280;4874;43.568;27.824;2022-09-23T10:30:18;99126.19;;;18.97;77.72
9672;BME280;4874;43.568;27.824;2022-09-23T10:32:49;98993.09;;;18.23;75.23
9672;BME280;4874;43.568;27.824;2022-09-23T10:35:19;99092.16;;;18.90;72.19
9672;BME280;4874;43.568;27.824;2022-09-23T10:37:58;99102.41;;;18.37;72.70
9672;BME280;4874;43.568;27.824;2022-09-23T10:52:48;99109.66;;;18.79;75.64
9672;BME280;4874;43.568;27.824;2022-09-23T10:55:31;99083.91;;;18.70;73.77
9672;BME280;4874;43.568;27.824;2022-09-23T11:04:19;99102.22;;;18.81;79.86
9672;BME280;4874;43.568;27.824;2022-09-23T11:26:30;99085.25;;;18.38;76.56
9672;BME280;4874;43.568;27.824;2022-09-23T11:37:10;99076.28;;;18.95;74.06
9672;BME280;4874;43.568;27.824;2022-09-23T11:40:01;99070.06;;;18.66;79.96
9672;BME280;4874;43.568;27.824;2022-09-23T11:42:37;99067.06;;;18.83;83.99
9672;BME280;4874;43.568;27.824;2022-09-23T11:45:14;99073.25;;;18.20;80.24
9672;BME280;4874;43.568;27.824;2022-09-23T11:47:49;99039.31;;;17.98;82.38
9672;BME280;4874;43.568;27.824;2022-09-23T11:50:22;99068.66;;;18.35;82.11
9672;BME280;4874;43.568;27.824;2022-09-23T11:53:01;99053.09;;;17.95;80.83
9672;BME280;4874;43.568;27.824;2022-09-23T11:55:37;99070.06;;;17.95;80.93
9672;BME280;4874;43.568;27.824;2022-09-23T11:58:20;99060.63;;;17.85;82.90
9672;BME280;4874;43.568;27.824;2022-09-23T12:00:58;99039.88;;;17.93;89.08
9672;BME280;4874;43.568;27.824;2022-09-23T12:06:25;99058.41;;;18.59;80.50
9672;BME280;4874;43.568;27.824;2022-09-23T12:08:58;99057.69;;;18.15;82.92
9672;BME280;4874;43.568;27.824;2022-09-23T12:12:21;99059.03;;;18.05;81.44
9672;BME280;4874;43.568;27.824;2022-09-23T12:15:16;99043.78;;;17.76;80.81
9672;BME280;4874;43.568;27.824;2022-09-23T12:18:07;99049.25;;;17.83;80.80
9672;BME280;4874;43.568;27.824;2022-09-23T12:26:00;99005.47;;;18.03;83.62
9672;BME280;4874;43.568;27.824;2022-09-23T12:28:35;99052.47;;;18.28;78.76
9672;BME280;4874;43.568;27.824;2022-09-23T12:31:06;99050.38;;;18.66;80.80
9672;BME280;4874;43.568;27.824;2022-09-23T12:33:35;99049.69;;;19.40;88.18
9672;BME280;4874;43.568;27.824;2022-09-23T12:36:10;99060.75;;;18.48;79.40
9672;BME280;4874;43.568;27.824;2022-09-23T12:38:52;99046.22;;;17.71;96.67
9672;BME280;4874;43.568;27.824;2022-09-23T12:41:25;99072.34;;;16.96;100.00
9672;BME280;4874;43.568;27.824;2022-09-23T12:44:23;99068.38;;;16.24;100.00
9672;BME280;4874;43.568;27.824;2022-09-23T12:49:40;99088.97;;;16.55;100.00
9672;BME280;4874;43.568;27.824;2022-09-23T12:52:28;99099.81;;;16.00;100.00
9672;BME280;4874;43.568;27.824;2022-09-23T12:57:49;99068.75;;;15.52;100.00
9672;BME280;4874;43.568;27.824;2022-09-23T13:05:20;99103.22;;;15.47;100.00
9672;BME280;4874;43.568;27.824;2022-09-23T13:08:07;99105.91;;;15.94;100.00
9672;BME280;4874;43.568;27.824;2022-09-23T13:11:01;99107.56;;;15.56;100.00
9672;BME280;4874;43.568;27.824;2022-09-23T13:13:35;99096.78;;;16.03;100.00
9672;BME280;4874;43.568;27.824;2022-09-23T13:26:42;99102.59;;;16.37;100.00
9672;BME280;4874;43.568;27.824;2022-09-23T13:29:25;99106.66;;;16.86;100.00
9672;BME280;4874;43.568;27.824;2022-09-23T13:31:54;99096.16;;;16.54;100.00
9672;BME280;4874;43.568;27.824;2022-09-23T13:34:27;99083.13;;;16.20;100.00
9672;BME280;4874;43.568;27.824;2022-09-23T13:36:57;99083.72;;;16.38;100.00
9672;BME280;4874;43.568;27.824;2022-09-23T13:39:27;99032.47;;;16.33;100.00
9672;BME280;4874;43.568;27.824;2022-09-23T13:41:58;99032.69;;;16.01;100.00
9672;BME280;4874;43.568;27.824;2022-09-23T13:44:27;99042.97;;;16.20;100.00
9672;BME280;4874;43.568;27.824;2022-09-23T13:46:57;99078.66;;;17.03;100.00
9672;BME280;4874;43.568;27.824;2022-09-23T13:49:28;99078.09;;;16.93;100.00
9672;BME280;4874;43.568;27.824;2022-09-23T13:51:57;99080.13;;;17.06;100.00
9672;BME280;4874;43.568;27.824;2022-09-23T13:54:47;99070.72;;;17.39;100.00
9672;BME280;4874;43.568;27.824;2022-09-23T13:57:32;99068.44;;;16.47;100.00
9672;BME280;4874;43.568;27.824;2022-09-23T14:00:19;99070.47;;;16.37;100.00
9672;BME280;4874;43.568;27.824;2022-09-23T14:02:50;99057.38;;;16.65;100.00
9672;BME280;4874;43.568;27.824;2022-09-23T14:05:23;99077.53;;;16.61;100.00
9672;BME280;4874;43.568;27.824;2022-09-23T14:07:51;99066.59;;;16.39;100.00
9672;BME280;4874;43.568;27.824;2022-09-23T14:10:21;99078.81;;;16.19;100.00
9672;BME280;4874;43.568;27.824;2022-09-23T14:12:50;99072.44;;;15.90;100.00
9672;BME280;4874;43.568;27.824;2022-09-23T14:15:18;99073.28;;;16.21;100.00
9672;BME280;4874;43.568;27.824;2022-09-23T14:17:51;99080.34;;;16.14;100.00
9672;BME280;4874;43.568;27.824;2022-09-23T14:20:20;99077.72;;;16.06;100.00
9672;BME280;4874;43.568;27.824;2022-09-23T14:23:10;99059.78;;;16.60;100.00
9672;BME280;4874;43.568;27.824;2022-09-23T14:25:37;99072.88;;;16.55;100.00
9672;BME280;4874;43.568;27.824;2022-09-23T14:28:05;99056.41;;;17.17;100.00
9672;BME280;4874;43.568;27.824;2022-09-23T14:30:32;99070.56;;;15.98;100.00
9672;BME280;4874;43.568;27.824;2022-09-23T14:32:59;99040.16;;;15.53;100.00
9672;BME280;4874;43.568;27.824;2022-09-23T14:35:39;99055.22;;;15.38;100.00
9672;BME280;4874;43.568;27.824;2022-09-23T14:38:07;99035.19;;;15.42;100.00
9672;BME280;4874;43.568;27.824;2022-09-23T14:40:54;99049.38;;;15.89;100.00
9672;BME280;4874;43.568;27.824;2022-09-23T14:43:58;99029.31;;;16.75;100.00
9672;BME280;4874;43.568;27.824;2022-09-23T14:46:30;99045.38;;;17.71;100.00
9672;BME280;4874;43.568;27.824;2022-09-23T14:49:02;99047.91;;;18.08;100.00
9672;BME280;4874;43.568;27.824;2022-09-23T14:51:35;99019.22;;;17.94;100.00
9672;BME280;4874;43.568;27.824;2022-09-23T14:56:49;99057.13;;;18.20;100.00
9672;BME280;4874;43.568;27.824;2022-09-23T14:59:31;99042.72;;;18.27;100.00
9672;BME280;4874;43.568;27.824;2022-09-23T15:01:58;99024.97;;;18.12;100.00
9672;BME280;4874;43.568;27.824;2022-09-23T15:06:58;99045.94;;;17.81;100.00
9672;BME280;4874;43.568;27.824;2022-09-23T15:09:37;99058.25;;;18.11;100.00
9672;BME280;4874;43.568;27.824;2022-09-23T15:12:12;99045.38;;;17.71;100.00
9672;BME280;4874;43.568;27.824;2022-09-23T15:14:47;99040.72;;;17.94;100.00
9672;BME280;4874;43.568;27.824;2022-09-23T15:20:02;99048.28;;;18.05;100.00
9672;BME280;4874;43.568;27.824;2022-09-23T15:22:31;99048.97;;;17.78;100.00
9672;BME280;4874;43.568;27.824;2022-09-23T15:25:30;99037.03;;;17.66;100.00
9672;BME280;4874;43.568;27.824;2022-09-23T15:28:15;99043.59;;;17.92;100.00
9672;BME280;4874;43.568;27.824;2022-09-23T15:30:42;99035.25;;;17.87;100.00
9672;BME280;4874;43.568;27.824;2022-09-23T15:33:12;99046.72;;;17.96;100.00
9672;BME280;4874;43.568;27.824;2022-09-23T15:35:47;99048.97;;;17.92;100.00
9672;BME280;4874;43.568;27.824;2022-09-23T15:38:14;99050.66;;;18.14;100.00
9672;BME280;4874;43.568;27.824;2022-09-23T15:40:42;99044.00;;;18.31;100.00
9672;BME280;4874;43.568;27.824;2022-09-23T15:43:18;99051.88;;;18.33;100.00
9672;BME280;4874;43.568;27.824;2022-09-23T15:45:51;99047.47;;;18.25;100.00
9672;BME280;4874;43.568;27.824;2022-09-23T15:48:23;99044.72;;;17.83;100.00
9672;BME280;4874;43.568;27.824;2022-09-23T15:50:51;99049.38;;;17.60;100.00
9672;BME280;4874;43.568;27.824;2022-09-23T15:53:20;99055.22;;;17.64;100.00
9672;BME280;4874;43.568;27.824;2022-09-23T15:55:47;99064.72;;;17.81;100.00
9672;BME280;4874;43.568;27.824;2022-09-23T15:58:17;99059.66;;;16.90;100.00
9672;BME280;4874;43.568;27.824;2022-09-23T16:00:45;99067.84;;;16.97;100.00